Time;durP1;ratioP1;P1;durP2;ratioP2;P2;SDS_P1;SDS_P2;PMS_P1;PMS_P2;Temp;Humidity;BMP_temperature;BMP_pressure;BME280_temperature;BME280_humidity;BME280_pressure;Samples;Min_cycle;Max_cycle;Signal;HPM_P1;HPM_P2
2023/04/10 00:01:00;;;;;;;;;;;;;;;12.27;100.00;101923.78;5094664;28;19923;-52
2023/04/10 00:03:26;;;;;;;;;;;;;;;12.11;100.00;101918.53;5093924;28;19916;-55
2023/04/10 00:05:53;;;;;;;;;;;;;;;12.03;100.00;101914.09;5094583;28;19923;-55
2023/04/10 00:08:22;;;;;;;;;;;;;;;12.15;100.00;101909.94;5093390;28;19920;-55
2023/04/10 00:10:47;;;;;;;;;;;;;;;11.79;100.00;101907.00;5094076;28;19928;-52
2023/04/10 00:13:13;;;;;;;;;;;;;;;11.75;100.00;101896.63;5094204;28;19998;-54
2023/04/10 00:15:39;;;;;;;;;;;;;;;11.83;100.00;101890.41;5094418;28;19916;-52
2023/04/10 00:18:04;;;;;;;;;;;;;;;11.58;100.00;101882.50;5093395;28;19939;-54
2023/04/10 00:20:29;;;;;;;;;;;;;;;11.68;100.00;101876.94;5094714;28;19967;-53
2023/04/10 00:22:55;;;;;;;;;;;;;;;11.69;100.00;101877.75;5094632;28;19917;-54
2023/04/10 00:25:21;;;;;;;;;;;;;;;11.84;100.00;101875.97;5094590;28;19939;-54
2023/04/10 00:27:47;;;;;;;;;;;;;;;11.90;100.00;101869.91;5094260;28;19931;-52
2023/04/10 00:30:12;;;;;;;;;;;;;;;11.75;100.00;101872.50;5093662;28;19920;-54
2023/04/10 00:32:37;;;;;;;;;;;;;;;11.95;100.00;101876.56;5094316;28;19963;-55
2023/04/10 00:35:03;;;;;;;;;;;;;;;12.01;100.00;101865.19;5094514;28;19920;-55
2023/04/10 00:37:28;;;;;;;;;;;;;;;11.94;100.00;101858.81;5093476;28;19912;-53
2023/04/10 00:39:54;;;;;;;;;;;;;;;11.94;100.00;101854.28;5093375;28;19916;-50
2023/04/10 00:42:19;;;;;;;;;;;;;;;11.92;100.00;101861.69;5094124;28;19924;-53
2023/04/10 00:44:44;;;;;;;;;;;;;;;11.87;100.00;101854.16;5091716;28;19942;-55
2023/04/10 00:47:11;;;;;;;;;;;;;;;11.89;100.00;101844.09;5094195;28;19967;-54
2023/04/10 00:49:36;;;;;;;;;;;;;;;11.85;100.00;101847.31;5091512;28;19975;-55
2023/04/10 00:52:02;;;;;;;;;;;;;;;11.81;100.00;101846.84;5093525;28;19920;-49
2023/04/10 00:54:28;;;;;;;;;;;;;;;11.94;100.00;101848.09;5090668;28;19921;-52
2023/04/10 00:56:55;;;;;;;;;;;;;;;11.95;100.00;101844.41;5093296;28;19936;-54
2023/04/10 00:59:21;;;;;;;;;;;;;;;11.93;100.00;101841.06;5092458;28;19917;-51
2023/04/10 01:01:46;;;;;;;;;;;;;;;11.97;100.00;101842.38;5094282;28;19952;-52
2023/04/10 01:04:12;;;;;;;;;;;;;;;11.95;100.00;101842.56;5093508;28;19925;-54
2023/04/10 01:06:58;;;;;;;;;;;;;;;11.98;100.00;101839.50;5094047;28;19925;-49
2023/04/10 01:09:29;;;;;;;;;;;;;;;12.00;100.00;101836.66;5093593;28;19924;-53
2023/04/10 01:12:02;;;;;;;;;;;;;;;11.90;100.00;101827.00;5093928;28;19931;-54
2023/04/10 01:14:30;;;;;;;;;;;;;;;11.94;100.00;101832.84;5090913;28;19971;-53
2023/04/10 01:17:00;;;;;;;;;;;;;;;12.00;100.00;101836.66;5092188;28;19927;-52
2023/04/10 01:19:45;;;;;;;;;;;;;;;11.96;100.00;101829.97;5093310;28;19939;-52
2023/04/10 01:22:12;;;;;;;;;;;;;;;11.87;100.00;101829.19;5093724;28;19916;-54
2023/04/10 01:24:48;;;;;;;;;;;;;;;11.79;100.00;101822.09;5092706;28;19924;-53
2023/04/10 01:27:15;;;;;;;;;;;;;;;12.01;100.00;101824.97;5093602;28;19925;-51
2023/04/10 01:29:46;;;;;;;;;;;;;;;12.02;100.00;101826.63;5092934;28;19921;-54
2023/04/10 01:32:13;;;;;;;;;;;;;;;11.99;100.00;101822.41;5099497;28;19946;-54
2023/04/10 01:34:43;;;;;;;;;;;;;;;12.03;100.00;101820.25;5092802;28;19924;-53
2023/04/10 01:37:14;;;;;;;;;;;;;;;11.93;100.00;101811.56;5093587;28;19979;-52
2023/04/10 01:39:41;;;;;;;;;;;;;;;11.93;100.00;101816.94;5091467;28;19916;-55
2023/04/10 01:42:09;;;;;;;;;;;;;;;11.88;100.00;101818.31;5082026;28;19928;-54
2023/04/10 01:44:40;;;;;;;;;;;;;;;11.97;100.00;101812.88;5055721;28;19917;-54
2023/04/10 01:47:06;;;;;;;;;;;;;;;11.93;100.00;101808.88;5057952;28;19951;-52
2023/04/10 01:49:31;;;;;;;;;;;;;;;11.97;100.00;101805.69;5076860;28;19916;-52
2023/04/10 01:52:01;;;;;;;;;;;;;;;11.87;100.00;101789.84;5058211;28;19928;-50
2023/04/10 01:54:27;;;;;;;;;;;;;;;11.80;100.00;101802.31;5059774;28;19917;-53
2023/04/10 01:56:53;;;;;;;;;;;;;;;11.86;100.00;101793.53;5060089;28;20459;-53
2023/04/10 01:59:20;;;;;;;;;;;;;;;11.77;100.00;101800.00;5068448;28;19924;-53
2023/04/10 02:01:45;;;;;;;;;;;;;;;11.78;100.00;101790.94;5057481;28;19923;-52
2023/04/10 02:04:11;;;;;;;;;;;;;;;12.05;100.00;101794.91;5076914;28;19917;-53
2023/04/10 02:06:43;;;;;;;;;;;;;;;11.84;100.00;101787.53;5077204;28;19917;-53
2023/04/10 02:09:14;;;;;;;;;;;;;;;11.97;100.00;101784.22;5075453;28;19923;-51
2023/04/10 02:11:43;;;;;;;;;;;;;;;11.93;100.00;101782.09;5059480;28;19913;-53
2023/04/10 02:14:10;;;;;;;;;;;;;;;11.78;100.00;101788.25;5059658;28;19975;-54
2023/04/10 02:16:37;;;;;;;;;;;;;;;11.75;100.00;101783.22;5059302;28;19923;-53
2023/04/10 02:19:04;;;;;;;;;;;;;;;11.89;100.00;101789.69;5076951;28;19923;-54
2023/04/10 02:21:30;;;;;;;;;;;;;;;11.73;100.00;101787.94;5076916;28;19916;-54
2023/04/10 02:23:56;;;;;;;;;;;;;;;11.69;100.00;101781.28;5059222;28;19920;-50
2023/04/10 02:26:22;;;;;;;;;;;;;;;11.71;100.00;101781.94;5075873;28;19917;-50
2023/04/10 02:28:47;;;;;;;;;;;;;;;11.68;100.00;101783.16;5059167;28;19944;-50
2023/04/10 02:31:13;;;;;;;;;;;;;;;11.68;100.00;101772.44;5059302;28;19947;-54
2023/04/10 02:33:38;;;;;;;;;;;;;;;11.67;100.00;101781.47;5076860;28;19921;-55
2023/04/10 02:36:04;;;;;;;;;;;;;;;11.76;100.00;101775.03;5059137;28;19980;-56
2023/04/10 02:38:29;;;;;;;;;;;;;;;11.75;100.00;101776.03;5056934;28;19917;-54
2023/04/10 02:40:55;;;;;;;;;;;;;;;11.65;100.00;101777.31;5073709;28;19917;-55
2023/04/10 02:43:20;;;;;;;;;;;;;;;11.62;100.00;101781.16;5057453;28;19917;-54
2023/04/10 02:45:46;;;;;;;;;;;;;;;11.60;100.00;101778.69;5058227;28;19945;-53
2023/04/10 02:48:17;;;;;;;;;;;;;;;11.67;100.00;101775.28;5058514;28;19973;-56
2023/04/10 02:50:54;;;;;;;;;;;;;;;11.69;100.00;101779.44;5058690;28;19924;-55
2023/04/10 02:53:21;;;;;;;;;;;;;;;11.80;100.00;101780.03;5075292;28;19928;-56
2023/04/10 02:55:53;;;;;;;;;;;;;;;11.82;100.00;101786.88;5058151;28;19919;-54
2023/04/10 02:58:18;;;;;;;;;;;;;;;11.76;100.00;101787.56;5075529;28;19928;-54
2023/04/10 03:00:47;;;;;;;;;;;;;;;11.71;100.00;101787.28;5075840;28;19920;-53
2023/04/10 03:03:18;;;;;;;;;;;;;;;11.75;100.00;101792.13;5075422;28;20517;-55
2023/04/10 03:05:50;;;;;;;;;;;;;;;11.67;100.00;101788.66;5057760;28;19987;-54
2023/04/10 03:08:21;;;;;;;;;;;;;;;11.59;100.00;101786.88;5057048;28;19931;-54
2023/04/10 03:10:48;;;;;;;;;;;;;;;11.50;100.00;101788.78;5057761;28;19917;-52
2023/04/10 03:13:14;;;;;;;;;;;;;;;11.57;100.00;101787.06;5075292;28;19924;-55
2023/04/10 03:15:40;;;;;;;;;;;;;;;11.37;100.00;101793.91;5075220;28;19920;-57
2023/04/10 03:18:05;;;;;;;;;;;;;;;11.45;100.00;101785.81;5075177;28;19928;-53
2023/04/10 03:20:31;;;;;;;;;;;;;;;11.40;100.00;101791.69;5075663;28;19916;-52
2023/04/10 03:23:02;;;;;;;;;;;;;;;11.46;100.00;101787.47;5057027;28;19921;-53
2023/04/10 03:25:27;;;;;;;;;;;;;;;11.36;100.00;101782.34;5056816;28;19912;-53
2023/04/10 03:27:53;;;;;;;;;;;;;;;11.40;100.00;101778.28;5075161;28;19925;-52
2023/04/10 03:30:19;;;;;;;;;;;;;;;11.30;100.00;101775.88;5056034;28;19992;-54
2023/04/10 03:32:46;;;;;;;;;;;;;;;11.33;100.00;101778.19;5056447;28;19984;-52
2023/04/10 03:35:12;;;;;;;;;;;;;;;11.34;100.00;101765.63;5074919;28;19927;-51
2023/04/10 03:37:38;;;;;;;;;;;;;;;11.36;100.00;101768.13;5057329;28;19920;-53
2023/04/10 03:40:06;;;;;;;;;;;;;;;11.25;100.00;101770.19;5057465;28;19921;-52
2023/04/10 03:42:31;;;;;;;;;;;;;;;11.22;100.00;101767.88;5080975;28;20008;-54
2023/04/10 03:44:57;;;;;;;;;;;;;;;11.34;100.00;101765.63;5093438;28;19916;-54
2023/04/10 03:47:23;;;;;;;;;;;;;;;11.32;100.00;101763.16;5093898;28;19946;-49
2023/04/10 03:49:50;;;;;;;;;;;;;;;11.21;100.00;101760.84;5079270;28;19923;-51
2023/04/10 03:52:16;;;;;;;;;;;;;;;11.19;100.00;101755.69;5093963;28;19943;-50
2023/04/10 03:54:41;;;;;;;;;;;;;;;11.17;100.00;101763.03;5094723;28;19923;-52
2023/04/10 03:57:17;;;;;;;;;;;;;;;10.91;100.00;101763.38;5092870;28;19979;-51
2023/04/10 03:59:44;;;;;;;;;;;;;;;10.99;100.00;101754.47;5093838;28;19948;-50
2023/04/10 04:02:11;;;;;;;;;;;;;;;10.86;100.00;101753.19;5093498;28;19942;-53
2023/04/10 04:04:37;;;;;;;;;;;;;;;10.83;100.00;101741.97;5093975;28;20011;-53
2023/04/10 04:07:18;;;;;;;;;;;;;;;10.84;100.00;101746.31;5092939;28;19921;-49
2023/04/10 04:10:07;;;;;;;;;;;;;;;10.87;100.00;101737.97;5084751;28;19962;-54
2023/04/10 04:12:46;;;;;;;;;;;;;;;10.74;100.00;101736.69;5101469;28;19916;-48
2023/04/10 04:15:25;;;;;;;;;;;;;;;10.68;100.00;101737.38;5092410;28;19924;-50
2023/04/10 04:18:13;;;;;;;;;;;;;;;10.67;100.00;101729.53;5085631;28;19926;-52
2023/04/10 04:20:46;;;;;;;;;;;;;;;10.52;100.00;101727.59;5091645;28;19924;-51
2023/04/10 04:23:18;;;;;;;;;;;;;;;10.66;100.00;101723.34;5093518;28;19919;-53
2023/04/10 04:26:02;;;;;;;;;;;;;;;10.55;100.00;101727.25;5093634;28;19924;-51
2023/04/10 04:28:53;;;;;;;;;;;;;;;10.57;100.00;101727.91;5091346;28;19927;-51
2023/04/10 04:31:38;;;;;;;;;;;;;;;10.53;100.00;101728.41;5093721;28;19927;-56
2023/04/10 04:34:15;;;;;;;;;;;;;;;10.67;100.00;101735.72;5093046;28;19916;-52
2023/04/10 04:37:02;;;;;;;;;;;;;;;10.65;100.00;101734.22;5092570;28;19924;-54
2023/04/10 04:39:47;;;;;;;;;;;;;;;10.61;100.00;101726.53;5093803;28;19935;-50
2023/04/10 04:42:21;;;;;;;;;;;;;;;10.58;100.00;101724.22;5093630;28;19924;-50
2023/04/10 04:45:01;;;;;;;;;;;;;;;10.64;100.00;101720.03;5092698;28;19921;-53
2023/04/10 04:47:54;;;;;;;;;;;;;;;10.66;100.00;101720.69;5093243;28;19959;-50
2023/04/10 04:50:26;;;;;;;;;;;;;;;10.59;100.00;101711.66;5091536;28;22089;-52
2023/04/10 04:53:30;;;;;;;;;;;;;;;10.32;100.00;101713.75;5093335;28;19939;-54
2023/04/10 04:56:06;;;;;;;;;;;;;;;10.38;100.00;101709.56;5091424;28;19916;-53
2023/04/10 04:59:04;;;;;;;;;;;;;;;10.28;100.00;101704.41;5081203;28;19928;-54
2023/04/10 05:01:53;;;;;;;;;;;;;;;10.18;100.00;101712.63;5092771;28;19923;-53
2023/04/10 05:04:31;;;;;;;;;;;;;;;10.02;100.00;101714.31;5091803;28;19920;-54
2023/04/10 05:07:07;;;;;;;;;;;;;;;9.89;100.00;101706.81;5092378;28;19988;-53
2023/04/10 05:09:52;;;;;;;;;;;;;;;10.02;100.00;101706.28;5091864;28;19924;-56
2023/04/10 05:12:33;;;;;;;;;;;;;;;10.07;100.00;101699.63;5093296;28;19950;-52
2023/04/10 05:15:03;;;;;;;;;;;;;;;10.16;100.00;101696.78;5092373;28;19924;-54
2023/04/10 05:17:49;;;;;;;;;;;;;;;10.12;100.00;101692.75;5092384;28;20012;-50
2023/04/10 05:20:35;;;;;;;;;;;;;;;10.27;100.00;101687.53;5092290;28;19916;-52
2023/04/10 05:23:12;;;;;;;;;;;;;;;10.40;100.00;101684.34;5092277;28;19991;-53
2023/04/10 05:25:58;;;;;;;;;;;;;;;10.37;100.00;101689.16;5072059;28;19917;-51
2023/04/10 05:28:42;;;;;;;;;;;;;;;10.21;100.00;101693.56;5092779;28;19931;-49
2023/04/10 05:31:22;;;;;;;;;;;;;;;10.14;100.00;101695.25;5090654;28;19917;-51
2023/04/10 05:33:56;;;;;;;;;;;;;;;10.30;100.00;101695.22;5092123;28;20071;-48
2023/04/10 05:36:34;;;;;;;;;;;;;;;10.23;100.00;101696.91;5092449;28;19912;-52
2023/04/10 05:39:17;;;;;;;;;;;;;;;10.31;100.00;101693.38;5092223;28;19923;-48
2023/04/10 05:42:04;;;;;;;;;;;;;;;10.37;100.00;101691.84;5084657;28;19925;-51
2023/04/10 05:44:43;;;;;;;;;;;;;;;10.50;100.00;101685.97;5092828;28;19916;-53
2023/04/10 05:47:35;;;;;;;;;;;;;;;10.53;100.00;101685.63;5074996;28;19928;-51
2023/04/10 05:50:33;;;;;;;;;;;;;;;10.55;100.00;101683.59;5048029;28;19979;-54
2023/04/10 05:53:11;;;;;;;;;;;;;;;10.52;100.00;101686.63;5091902;28;19917;-56
2023/04/10 05:56:09;;;;;;;;;;;;;;;10.53;100.00;101688.28;5070487;28;19970;-50
2023/04/10 05:58:55;;;;;;;;;;;;;;;10.55;100.00;101694.31;5085428;28;19920;-52
2023/04/10 06:01:36;;;;;;;;;;;;;;;10.42;100.00;101695.72;5088412;28;19916;-54
2023/04/10 06:04:02;;;;;;;;;;;;;;;10.55;100.00;101696.97;5076475;28;19943;-52
2023/04/10 06:06:28;;;;;;;;;;;;;;;10.44;100.00;101685.66;5075100;28;19923;-53
2023/04/10 06:08:55;;;;;;;;;;;;;;;10.48;100.00;101683.47;5076386;28;19917;-53
2023/04/10 06:11:20;;;;;;;;;;;;;;;10.63;100.00;101685.41;5074874;28;19932;-53
2023/04/10 06:13:50;;;;;;;;;;;;;;;10.50;100.00;101681.47;5074717;28;19916;-54
2023/04/10 06:16:15;;;;;;;;;;;;;;;10.60;100.00;101683.91;5069620;28;19939;-50
2023/04/10 06:18:42;;;;;;;;;;;;;;;10.67;100.00;101676.03;5074559;28;19992;-54
2023/04/10 06:21:08;;;;;;;;;;;;;;;10.78;100.00;101672.13;5058912;28;19917;-52
2023/04/10 06:23:34;;;;;;;;;;;;;;;10.87;100.00;101674.56;5099302;28;20286;-56
2023/04/10 06:26:02;;;;;;;;;;;;;;;10.89;100.00;101663.69;5099365;28;19923;-50
2023/04/10 06:28:28;;;;;;;;;;;;;;;10.97;100.00;101674.34;5074951;28;19991;-56
2023/04/10 06:30:57;;;;;;;;;;;;;;;10.98;100.00;101667.97;5071925;28;19916;-52
2023/04/10 06:33:29;;;;;;;;;;;;;;;10.87;100.00;101665.72;5092624;28;19924;-55
2023/04/10 06:35:56;;;;;;;;;;;;;;;11.09;100.00;101647.19;5078390;28;19983;-54
2023/04/10 06:38:22;;;;;;;;;;;;;;;11.17;100.00;101645.25;5078801;28;19920;-57
2023/04/10 06:40:47;;;;;;;;;;;;;;;11.22;100.00;101646.56;5076307;28;19987;-50
2023/04/10 06:43:13;;;;;;;;;;;;;;;11.22;100.00;101641.22;5095738;28;19928;-56
2023/04/10 06:45:38;;;;;;;;;;;;;;;11.39;100.00;101641.91;5092349;28;19912;-54
2023/04/10 06:48:03;;;;;;;;;;;;;;;11.33;100.00;101638.94;5104460;28;19924;-53
2023/04/10 06:50:29;;;;;;;;;;;;;;;11.45;100.00;101631.31;5102252;28;19923;-55
2023/04/10 06:52:58;;;;;;;;;;;;;;;11.78;100.00;101624.78;5094992;28;19984;-50
2023/04/10 06:55:24;;;;;;;;;;;;;;;11.71;100.00;101623.84;5094095;28;19924;-55
2023/04/10 06:57:49;;;;;;;;;;;;;;;11.97;100.00;101623.41;5089240;28;19924;-53
2023/04/10 07:00:15;;;;;;;;;;;;;;;12.05;100.00;101619.81;5085124;28;19964;-53
2023/04/10 07:02:40;;;;;;;;;;;;;;;11.90;100.00;101615.25;5096140;28;19912;-54
2023/04/10 07:05:06;;;;;;;;;;;;;;;11.81;100.00;101616.38;5097266;28;19916;-54
2023/04/10 07:07:31;;;;;;;;;;;;;;;11.87;100.00;101612.94;5092882;28;19920;-52
2023/04/10 07:09:57;;;;;;;;;;;;;;;11.87;100.00;101610.28;5095171;28;19924;-53
2023/04/10 07:12:23;;;;;;;;;;;;;;;12.22;100.00;101606.19;5085646;28;19923;-55
2023/04/10 07:14:48;;;;;;;;;;;;;;;12.28;100.00;101602.78;5093793;28;19916;-54
2023/04/10 07:17:14;;;;;;;;;;;;;;;12.28;100.00;101587.50;5089784;28;19944;-49
2023/04/10 07:19:39;;;;;;;;;;;;;;;12.34;100.00;101585.94;5096904;28;19916;-51
2023/04/10 07:22:06;;;;;;;;;;;;;;;12.51;100.00;101586.53;5086312;28;19928;-51
2023/04/10 07:24:31;;;;;;;;;;;;;;;12.53;100.00;101579.09;5087392;28;19921;-53
2023/04/10 07:26:57;;;;;;;;;;;;;;;12.58;100.00;101573.19;5086065;28;19924;-52
2023/04/10 07:29:22;;;;;;;;;;;;;;;12.70;100.00;101571.66;5095214;28;19998;-52
2023/04/10 07:31:48;;;;;;;;;;;;;;;12.81;100.00;101558.75;5095457;28;19924;-50
2023/04/10 07:34:13;;;;;;;;;;;;;;;12.89;100.00;101562.13;5086861;28;19948;-51
2023/04/10 07:36:39;;;;;;;;;;;;;;;13.02;100.00;101566.78;5084354;28;19920;-52
2023/04/10 07:39:04;;;;;;;;;;;;;;;13.23;100.00;101553.50;5092343;28;19916;-51
2023/04/10 07:41:30;;;;;;;;;;;;;;;13.10;100.00;101555.06;5083187;28;19921;-52
2023/04/10 07:43:55;;;;;;;;;;;;;;;13.41;100.00;101555.69;5073818;28;20343;-52
2023/04/10 07:46:21;;;;;;;;;;;;;;;13.61;100.00;101551.31;5057796;28;19936;-53
2023/04/10 07:48:46;;;;;;;;;;;;;;;13.72;99.50;101546.41;5070601;28;19928;-51
2023/04/10 07:51:12;;;;;;;;;;;;;;;13.45;96.78;101554.31;5070548;28;20284;-50
2023/04/10 07:53:38;;;;;;;;;;;;;;;13.83;96.88;101551.19;5074188;28;19917;-53
2023/04/10 07:56:03;;;;;;;;;;;;;;;13.73;95.71;101558.81;5069586;28;19923;-53
2023/04/10 07:58:28;;;;;;;;;;;;;;;13.93;94.46;101540.06;5069728;28;19928;-48
2023/04/10 08:00:54;;;;;;;;;;;;;;;13.93;93.16;101550.00;5069125;28;19985;-48
2023/04/10 08:03:20;;;;;;;;;;;;;;;13.83;93.25;101547.69;5063284;28;19976;-51
2023/04/10 08:05:45;;;;;;;;;;;;;;;13.68;91.81;101526.31;5068634;28;19916;-51
2023/04/10 08:08:10;;;;;;;;;;;;;;;13.93;92.95;101526.63;5077432;28;19925;-54
2023/04/10 08:10:37;;;;;;;;;;;;;;;14.00;93.45;101523.97;5074597;28;19924;-53
2023/04/10 08:13:03;;;;;;;;;;;;;;;13.97;92.40;101530.59;5074300;28;19936;-50
2023/04/10 08:15:28;;;;;;;;;;;;;;;14.12;92.34;101521.53;5074757;28;19924;-52
2023/04/10 08:17:54;;;;;;;;;;;;;;;14.14;90.70;101525.69;5074217;28;19941;-52
2023/04/10 08:20:19;;;;;;;;;;;;;;;14.12;92.90;101522.38;5074598;28;19925;-49
2023/04/10 08:22:45;;;;;;;;;;;;;;;14.22;90.24;101519.28;5073879;28;19932;-54
2023/04/10 08:25:10;;;;;;;;;;;;;;;14.19;89.35;101528.59;5074169;28;19917;-52
2023/04/10 08:27:36;;;;;;;;;;;;;;;14.38;91.13;101526.16;5074400;28;19920;-55
2023/04/10 08:30:02;;;;;;;;;;;;;;;14.44;91.29;101530.72;5074057;28;19952;-52
2023/04/10 08:32:28;;;;;;;;;;;;;;;14.56;90.72;101514.78;5075052;28;19917;-51
2023/04/10 08:34:53;;;;;;;;;;;;;;;14.55;91.23;101521.19;5073713;28;19916;-53
2023/04/10 08:37:20;;;;;;;;;;;;;;;14.63;89.95;101506.72;5075560;28;19928;-51
2023/04/10 08:39:45;;;;;;;;;;;;;;;15.02;90.25;101513.16;5066231;28;19924;-54
2023/04/10 08:42:10;;;;;;;;;;;;;;;15.12;88.19;101504.66;5082977;28;19992;-51
2023/04/10 08:44:36;;;;;;;;;;;;;;;15.12;87.94;101501.13;5081968;28;19924;-54
2023/04/10 08:47:03;;;;;;;;;;;;;;;14.79;87.18;101504.69;5087207;28;19947;-55
2023/04/10 08:49:30;;;;;;;;;;;;;;;14.72;87.56;101494.72;5085367;28;19932;-52
2023/04/10 08:51:57;;;;;;;;;;;;;;;14.79;87.53;101494.72;5085681;28;19922;-51
2023/04/10 08:54:25;;;;;;;;;;;;;;;14.73;89.79;101491.00;5084660;28;19946;-54
2023/04/10 08:56:52;;;;;;;;;;;;;;;14.88;89.13;101495.34;5093329;28;19939;-54
2023/04/10 08:59:18;;;;;;;;;;;;;;;14.86;88.44;101500.94;5082427;28;19948;-50
2023/04/10 09:01:45;;;;;;;;;;;;;;;15.04;87.66;101492.25;5091515;28;19985;-53
2023/04/10 09:04:10;;;;;;;;;;;;;;;15.22;88.79;101495.31;5081056;28;19943;-54
2023/04/10 09:06:36;;;;;;;;;;;;;;;15.37;88.23;101498.59;5090122;28;19983;-54
2023/04/10 09:09:02;;;;;;;;;;;;;;;15.24;88.26;101487.84;5086500;28;19942;-53
2023/04/10 09:11:54;;;;;;;;;;;;;;;15.62;87.42;101470.94;5090654;28;19924;-54
2023/04/10 09:14:24;;;;;;;;;;;;;;;15.16;86.45;101478.97;5089221;28;19923;-51
2023/04/10 09:16:53;;;;;;;;;;;;;;;15.37;86.44;101460.88;5091794;28;19916;-54
2023/04/10 09:19:37;;;;;;;;;;;;;;;15.16;86.83;101462.78;5089048;28;19923;-52
2023/04/10 09:22:02;;;;;;;;;;;;;;;14.99;87.00;101457.03;5092875;28;19916;-55
2023/04/10 09:24:27;;;;;;;;;;;;;;;15.24;85.91;101456.34;5093655;28;19927;-53
2023/04/10 09:26:53;;;;;;;;;;;;;;;15.49;86.11;101445.69;5093302;28;19920;-56
2023/04/10 09:29:19;;;;;;;;;;;;;;;15.40;86.18;101446.97;5092584;28;19931;-55
2023/04/10 09:31:45;;;;;;;;;;;;;;;15.47;86.00;101446.94;5087417;28;19917;-55
2023/04/10 09:34:22;;;;;;;;;;;;;;;15.65;84.49;101440.00;5093456;28;19920;-55
2023/04/10 09:36:54;;;;;;;;;;;;;;;15.48;85.14;101427.84;5092502;28;19923;-55
2023/04/10 09:39:20;;;;;;;;;;;;;;;15.56;85.56;101440.28;5092923;28;19917;-52
2023/04/10 09:41:54;;;;;;;;;;;;;;;15.80;85.11;101424.38;5075980;28;19925;-53
2023/04/10 09:44:36;;;;;;;;;;;;;;;15.77;85.63;101417.53;5072840;28;19916;-51
2023/04/10 09:47:18;;;;;;;;;;;;;;;15.66;84.69;101417.41;5071473;28;19990;-54
2023/04/10 09:49:48;;;;;;;;;;;;;;;15.55;84.63;101406.25;5071624;28;19927;-53
2023/04/10 09:52:33;;;;;;;;;;;;;;;15.70;84.86;101395.19;5073523;28;19948;-49
2023/04/10 09:54:59;;;;;;;;;;;;;;;15.80;86.54;101388.50;5055514;28;19972;-50
2023/04/10 09:57:25;;;;;;;;;;;;;;;15.97;85.37;101391.53;5072833;28;19920;-52
2023/04/10 09:59:52;;;;;;;;;;;;;;;16.00;84.32;101391.91;5073155;28;19944;-52
2023/04/10 10:02:18;;;;;;;;;;;;;;;16.04;84.60;101392.31;5073080;28;19916;-52
2023/04/10 10:04:46;;;;;;;;;;;;;;;16.25;84.65;101393.00;5072959;28;19925;-55
2023/04/10 10:07:15;;;;;;;;;;;;;;;16.26;84.28;101391.94;5075029;28;19921;-51
2023/04/10 10:09:42;;;;;;;;;;;;;;;16.25;83.69;101387.59;5077181;28;19916;-53
2023/04/10 10:12:12;;;;;;;;;;;;;;;16.31;83.34;101398.34;5076675;28;19917;-52
2023/04/10 10:14:53;;;;;;;;;;;;;;;16.31;84.37;101387.56;5076783;28;19956;-51
2023/04/10 10:17:20;;;;;;;;;;;;;;;16.53;83.63;101383.63;5075421;28;20395;-51
2023/04/10 10:20:15;;;;;;;;;;;;;;;16.53;80.94;101389.84;5076892;28;19917;-53
2023/04/10 10:22:41;;;;;;;;;;;;;;;16.58;80.14;101364.88;5061423;28;19944;-55
2023/04/10 10:25:07;;;;;;;;;;;;;;;16.91;79.71;101366.41;5076750;28;19916;-53
2023/04/10 10:27:35;;;;;;;;;;;;;;;17.10;79.37;101366.44;5076608;28;19920;-55
2023/04/10 10:30:02;;;;;;;;;;;;;;;17.06;80.22;101353.34;5076553;28;19921;-52
2023/04/10 10:32:28;;;;;;;;;;;;;;;17.24;78.99;101367.91;5076508;28;19923;-52
2023/04/10 10:34:53;;;;;;;;;;;;;;;17.17;78.33;101354.47;5078901;28;19929;-54
2023/04/10 10:37:20;;;;;;;;;;;;;;;17.47;76.97;101339.34;5076470;28;19970;-52
2023/04/10 10:40:04;;;;;;;;;;;;;;;17.51;77.95;101342.41;5076085;28;19960;-50
2023/04/10 10:42:33;;;;;;;;;;;;;;;17.46;77.06;101334.97;5081633;28;19928;-54
2023/04/10 10:45:04;;;;;;;;;;;;;;;17.35;78.89;101336.59;5096607;28;19917;-53
2023/04/10 10:47:31;;;;;;;;;;;;;;;17.31;78.44;101330.00;5094876;28;19924;-55
2023/04/10 10:50:01;;;;;;;;;;;;;;;17.57;78.88;101328.81;5094140;28;19917;-52
2023/04/10 10:52:36;;;;;;;;;;;;;;;17.71;78.40;101317.78;5093534;28;19925;-51
2023/04/10 10:55:20;;;;;;;;;;;;;;;17.96;76.68;101308.63;5093983;28;19946;-53
2023/04/10 10:57:47;;;;;;;;;;;;;;;18.15;75.53;101302.09;5094613;28;19924;-58
2023/04/10 11:00:13;;;;;;;;;;;;;;;18.25;74.26;101304.22;5094848;28;19913;-52
2023/04/10 11:02:39;;;;;;;;;;;;;;;18.14;75.34;101297.75;5094686;28;19975;-54
2023/04/10 11:05:05;;;;;;;;;;;;;;;18.22;77.08;101301.16;5096120;28;19931;-53
2023/04/10 11:08:03;;;;;;;;;;;;;;;18.30;75.94;101300.81;5096163;28;19920;-54
2023/04/10 11:10:47;;;;;;;;;;;;;;;18.12;75.79;101291.75;5062267;28;19996;-53
2023/04/10 11:13:16;;;;;;;;;;;;;;;18.14;74.83;101289.63;5094074;28;19943;-54
2023/04/10 11:15:43;;;;;;;;;;;;;;;18.38;75.41;101273.38;5095781;28;19946;-54
2023/04/10 11:18:09;;;;;;;;;;;;;;;18.56;74.18;101285.94;5093307;28;19920;-55
2023/04/10 11:20:55;;;;;;;;;;;;;;;18.82;75.58;101272.09;5095484;28;19972;-53
2023/04/10 11:23:20;;;;;;;;;;;;;;;18.91;72.98;101273.34;5094343;28;20003;-54
2023/04/10 11:25:46;;;;;;;;;;;;;;;19.20;72.35;101276.94;5095840;28;19924;-55
2023/04/10 11:28:30;;;;;;;;;;;;;;;19.95;69.81;101262.47;5095610;28;19920;-54
2023/04/10 11:31:20;;;;;;;;;;;;;;;20.01;68.59;101261.47;5094223;28;19939;-51
2023/04/10 11:33:59;;;;;;;;;;;;;;;20.20;67.19;101243.00;5095454;28;19916;-52
2023/04/10 11:36:25;;;;;;;;;;;;;;;20.24;67.01;101239.78;5094329;28;19924;-54
2023/04/10 11:38:54;;;;;;;;;;;;;;;20.11;69.06;101230.94;5095778;28;19907;-51
2023/04/10 11:41:25;;;;;;;;;;;;;;;20.00;67.67;101229.16;5094449;28;19921;-53
2023/04/10 11:43:50;;;;;;;;;;;;;;;19.81;67.29;101234.00;5095437;28;19916;-53
2023/04/10 11:46:16;;;;;;;;;;;;;;;20.00;68.24;101227.28;5094954;28;19991;-54
2023/04/10 11:48:41;;;;;;;;;;;;;;;19.52;67.00;101220.53;5095433;28;19921;-54
2023/04/10 11:51:07;;;;;;;;;;;;;;;19.31;66.85;101212.88;5095216;28;19979;-54
2023/04/10 11:53:33;;;;;;;;;;;;;;;19.51;66.25;101227.84;5095216;28;19916;-52
2023/04/10 11:55:58;;;;;;;;;;;;;;;19.53;67.89;101225.69;5094965;28;19944;-52
2023/04/10 11:58:25;;;;;;;;;;;;;;;19.54;66.74;101213.78;5094982;28;19940;-54
2023/04/10 12:01:13;;;;;;;;;;;;;;;19.76;66.38;101211.16;5095011;28;19944;-53
2023/04/10 12:03:40;;;;;;;;;;;;;;;20.10;66.47;101204.88;5094710;28;19916;-52
2023/04/10 12:06:13;;;;;;;;;;;;;;;19.67;66.78;101207.19;5094901;28;19917;-56
2023/04/10 12:08:42;;;;;;;;;;;;;;;19.84;66.61;101188.22;5094899;28;19931;-55
2023/04/10 12:11:08;;;;;;;;;;;;;;;20.56;66.49;101196.47;5094785;28;19916;-57
2023/04/10 12:13:34;;;;;;;;;;;;;;;20.73;65.90;101201.81;5092639;28;19916;-54
2023/04/10 12:16:00;;;;;;;;;;;;;;;20.74;64.58;101206.16;5094500;28;20002;-55
2023/04/10 12:18:26;;;;;;;;;;;;;;;20.72;63.04;101194.75;5094562;28;20010;-53
2023/04/10 12:20:55;;;;;;;;;;;;;;;21.01;61.93;101194.53;5094603;28;19917;-53
2023/04/10 12:23:21;;;;;;;;;;;;;;;21.18;62.07;101177.25;5092043;28;19920;-54
2023/04/10 12:25:46;;;;;;;;;;;;;;;21.45;62.54;101185.38;5094329;28;19917;-56
2023/04/10 12:28:21;;;;;;;;;;;;;;;20.96;62.06;101172.72;5093482;28;19932;-55
2023/04/10 12:30:52;;;;;;;;;;;;;;;20.76;63.86;101168.72;5092025;28;19916;-53
2023/04/10 12:33:21;;;;;;;;;;;;;;;20.32;63.91;101160.63;5093947;28;19920;-54
2023/04/10 12:35:47;;;;;;;;;;;;;;;20.04;64.82;101165.97;5094102;28;19916;-56
2023/04/10 12:38:12;;;;;;;;;;;;;;;20.06;65.06;101152.97;5093832;28;19952;-51
2023/04/10 12:40:39;;;;;;;;;;;;;;;19.87;65.89;101163.28;5093974;28;20035;-56
2023/04/10 12:43:04;;;;;;;;;;;;;;;19.96;65.39;101141.16;5093835;28;19921;-55
2023/04/10 12:45:42;;;;;;;;;;;;;;;19.44;66.99;101137.69;5094032;28;19916;-54